Time;durP1;ratioP1;P1;durP2;ratioP2;P2;SDS_P1;SDS_P2;PMS_P1;PMS_P2;Temp;Humidity;BMP_temperature;BMP_pressure;BME280_temperature;BME280_humidity;BME280_pressure;Samples;Min_cycle;Max_cycle;Signal;HPM_P1;HPM_P2
2023/03/28 00:01:18;;;;;;;3.03;2.20;;;2.30;99.90;;;;;;5994762;23;21614;-78
2023/03/28 00:03:45;;;;;;;3.72;2.30;;;2.30;99.90;;;;;;5980829;23;20289;-78
2023/03/28 00:06:17;;;;;;;4.45;1.75;;;2.30;99.90;;;;;;5991856;23;20275;-78
2023/03/28 00:08:46;;;;;;;1.95;1.70;;;2.30;99.90;;;;;;5991518;23;20251;-78
2023/03/28 00:11:18;;;;;;;3.25;1.80;;;2.30;99.90;;;;;;5992536;23;20196;-78
2023/03/28 00:13:46;;;;;;;2.05;1.80;;;2.40;99.90;;;;;;5994967;23;20271;-78
2023/03/28 00:16:13;;;;;;;2.97;1.85;;;2.30;99.90;;;;;;5989074;23;20197;-78
2023/03/28 00:18:41;;;;;;;3.72;2.30;;;2.30;99.90;;;;;;5981672;23;20271;-78
2023/03/28 00:21:22;;;;;;;3.35;1.75;;;2.30;99.90;;;;;;6001141;23;20267;-78
2023/03/28 00:23:51;;;;;;;3.30;1.95;;;2.30;99.90;;;;;;5985139;23;20200;-78
2023/03/28 00:26:19;;;;;;;7.07;2.42;;;2.30;99.90;;;;;;5998895;23;20208;-78
2023/03/28 00:28:47;;;;;;;3.75;2.05;;;2.30;99.90;;;;;;5993539;23;20882;-78
2023/03/28 00:31:14;;;;;;;4.07;2.00;;;2.30;99.90;;;;;;5994809;23;20658;-78
2023/03/28 00:33:42;;;;;;;4.03;1.90;;;2.30;99.90;;;;;;5993471;23;20788;-78
2023/03/28 00:36:13;;;;;;;5.32;2.03;;;2.30;99.90;;;;;;5992002;23;20198;-78
2023/03/28 00:38:41;;;;;;;2.80;1.95;;;2.20;99.90;;;;;;5995031;23;20208;-78
2023/03/28 00:41:09;;;;;;;2.70;2.15;;;2.20;99.90;;;;;;5989588;23;20222;-78
2023/03/28 00:43:37;;;;;;;2.53;1.77;;;2.60;99.90;;;;;;5992442;23;20203;-78
2023/03/28 00:46:10;;;;;;;5.28;2.05;;;2.20;99.90;;;;;;5991344;23;20192;-78
2023/03/28 00:48:41;;;;;;;4.20;1.80;;;2.30;99.90;;;;;;5993319;23;20605;-78
2023/03/28 00:51:08;;;;;;;5.35;2.30;;;2.30;99.90;;;;;;5999988;23;20202;-78
2023/03/28 00:53:37;;;;;;;3.20;2.05;;;2.30;99.90;;;;;;5985338;23;20200;-78
2023/03/28 00:56:10;;;;;;;1.80;1.70;;;2.30;99.90;;;;;;5986443;23;20192;-78
2023/03/28 00:58:41;;;;;;;2.65;1.83;;;2.30;99.90;;;;;;5989646;23;20243;-78
2023/03/28 01:01:10;;;;;;;5.07;2.08;;;2.30;99.90;;;;;;5983583;23;20315;-78
2023/03/28 01:03:40;;;;;;;2.63;1.90;;;2.30;99.90;;;;;;5984356;23;20690;-79
2023/03/28 01:06:09;;;;;;;6.60;2.05;;;2.30;99.90;;;;;;5983532;23;20304;-77
2023/03/28 01:08:39;;;;;;;2.70;1.90;;;2.30;99.90;;;;;;5984218;23;20314;-78
2023/03/28 01:11:09;;;;;;;2.38;1.77;;;2.30;99.90;;;;;;5992811;23;20219;-78
2023/03/28 01:13:40;;;;;;;5.00;2.22;;;2.30;99.90;;;;;;5985033;23;20201;-78
2023/03/28 01:16:09;;;;;;;2.38;2.03;;;2.30;99.90;;;;;;6004633;23;20393;-79
2023/03/28 01:18:40;;;;;;;3.28;1.83;;;2.30;99.90;;;;;;5994296;23;20768;-79
2023/03/28 01:21:47;;;;;;;3.33;2.20;;;2.30;99.90;;;;;;5988999;23;20194;-78
2023/03/28 01:24:58;;;;;;;6.40;1.98;;;2.30;99.90;;;;;;5986166;23;20277;-79
2023/03/28 01:27:34;;;;;;;3.88;1.75;;;2.30;99.90;;;;;;5983487;23;20238;-78
2023/03/28 01:30:41;;;;;;;3.45;2.40;;;2.30;99.90;;;;;;5996763;23;20648;-78
2023/03/28 01:33:42;;;;;;;2.65;1.85;;;2.30;99.90;;;;;;5991242;23;20240;-78
2023/03/28 01:36:49;;;;;;;3.25;2.40;;;2.20;99.90;;;;;;5990956;23;20274;-78
2023/03/28 01:39:22;;;;;;;4.90;2.55;;;2.20;99.90;;;;;;5994490;23;20884;-78
2023/03/28 01:41:59;;;;;;;2.88;1.92;;;2.20;99.90;;;;;;5992008;23;20185;-78
2023/03/28 01:44:33;;;;;;;3.08;2.50;;;2.20;99.90;;;;;;5992754;23;20558;-78
2023/03/28 01:47:06;;;;;;;5.13;2.47;;;2.20;99.90;;;;;;5997005;23;20204;-78
2023/03/28 01:49:46;;;;;;;4.13;2.60;;;2.20;99.90;;;;;;5987080;23;20244;-78
2023/03/28 01:52:20;;;;;;;4.25;2.60;;;2.20;99.90;;;;;;5995864;23;20251;-78
2023/03/28 01:54:57;;;;;;;3.03;2.72;;;2.20;99.90;;;;;;5995280;23;20197;-78
2023/03/28 01:57:29;;;;;;;3.47;2.28;;;2.20;99.90;;;;;;5996560;23;20292;-78
2023/03/28 02:00:05;;;;;;;2.90;2.60;;;2.20;99.90;;;;;;5980426;23;20190;-79
2023/03/28 02:02:37;;;;;;;3.58;2.63;;;2.20;99.90;;;;;;5990939;23;20212;-78
2023/03/28 02:05:09;;;;;;;5.05;2.95;;;2.20;99.90;;;;;;5991200;23;20185;-79
2023/03/28 02:07:40;;;;;;;3.13;2.83;;;2.10;99.90;;;;;;5989070;23;20277;-79
2023/03/28 02:10:09;;;;;;;3.95;3.40;;;2.10;99.90;;;;;;5993503;23;20194;-78
2023/03/28 02:12:40;;;;;;;5.85;3.20;;;2.10;99.90;;;;;;5987741;23;20638;-79
2023/03/28 02:15:11;;;;;;;4.63;2.70;;;2.10;99.90;;;;;;5984990;23;20274;-78
2023/03/28 02:17:42;;;;;;;2.88;2.67;;;2.10;99.90;;;;;;5998125;23;20707;-78
2023/03/28 02:20:13;;;;;;;4.30;3.38;;;2.10;99.90;;;;;;6002536;23;20190;-79
2023/03/28 02:22:47;;;;;;;3.50;2.90;;;2.10;99.90;;;;;;5992898;23;20612;-79
2023/03/28 02:25:15;;;;;;;3.67;3.28;;;2.10;99.90;;;;;;6000351;23;20193;-78
2023/03/28 02:27:45;;;;;;;4.10;3.70;;;2.10;99.90;;;;;;5998645;23;20209;-78
2023/03/28 02:30:13;;;;;;;6.82;3.80;;;1.70;99.90;;;;;;5990201;23;20220;-78
2023/03/28 02:32:42;;;;;;;5.53;3.50;;;2.10;99.90;;;;;;5997872;23;20191;-78
2023/03/28 02:35:10;;;;;;;3.47;3.17;;;2.00;99.90;;;;;;6001204;23;20713;-78
2023/03/28 02:37:48;;;;;;;3.20;2.90;;;2.00;99.90;;;;;;5993266;23;20270;-78
2023/03/28 02:40:33;;;;;;;4.22;3.05;;;2.00;99.90;;;;;;5989354;23;20262;-79
2023/03/28 02:43:37;;;;;;;3.58;3.25;;;2.00;99.90;;;;;;5994872;23;20247;-79
2023/03/28 02:46:23;;;;;;;4.85;3.92;;;2.00;99.90;;;;;;5884401;24;20271;-78
2023/03/28 02:49:20;;;;;;;3.63;3.30;;;1.90;99.90;;;;;;5993126;23;20628;-78
2023/03/28 02:51:55;;;;;;;4.55;3.65;;;1.90;99.90;;;;;;5998300;23;20269;-79
2023/03/28 02:54:32;;;;;;;4.22;3.83;;;1.90;99.90;;;;;;5991739;23;20196;-78
2023/03/28 02:57:09;;;;;;;4.60;3.83;;;1.90;99.90;;;;;;5987939;22;20871;-68
2023/03/28 02:59:42;;;;;;;3.63;3.25;;;1.80;99.90;;;;;;6001216;23;20198;-67
2023/03/28 03:02:10;;;;;;;3.97;3.38;;;1.80;99.90;;;;;;5997714;23;20278;-67
2023/03/28 03:04:37;;;;;;;3.97;3.42;;;1.80;99.90;;;;;;6003409;23;20547;-67
2023/03/28 03:07:07;;;;;;;3.92;3.58;;;1.70;99.90;;;;;;6001403;23;20681;-67
2023/03/28 03:09:36;;;;;;;5.18;3.78;;;1.70;99.90;;;;;;5995378;23;20221;-67
2023/03/28 03:12:03;;;;;;;3.83;3.40;;;1.70;99.90;;;;;;5996205;23;20196;-67
2023/03/28 03:14:30;;;;;;;6.38;3.20;;;1.60;99.90;;;;;;5999763;23;20304;-67
2023/03/28 03:16:57;;;;;;;4.90;3.47;;;1.60;99.90;;;;;;6001580;23;20630;-67
2023/03/28 03:19:25;;;;;;;3.50;3.20;;;1.60;99.90;;;;;;6001674;23;20559;-67
2023/03/28 03:21:53;;;;;;;5.30;3.30;;;1.60;99.90;;;;;;5996807;23;20628;-67
2023/03/28 03:24:20;;;;;;;3.22;2.92;;;1.50;99.90;;;;;;5995253;23;20261;-67
2023/03/28 03:26:48;;;;;;;7.90;4.13;;;1.60;99.90;;;;;;5994144;23;20248;-67
2023/03/28 03:29:15;;;;;;;5.78;3.45;;;1.60;99.90;;;;;;5990545;23;20219;-67
2023/03/28 03:31:43;;;;;;;4.20;3.80;;;1.50;99.90;;;;;;5999016;23;20599;-67
2023/03/28 03:34:10;;;;;;;6.35;3.58;;;1.50;99.90;;;;;;5995826;23;20529;-67
2023/03/28 03:36:37;;;;;;;5.18;3.20;;;1.50;99.90;;;;;;6003727;23;20224;-67
2023/03/28 03:39:04;;;;;;;3.58;3.00;;;1.50;99.90;;;;;;5999566;23;20255;-67
2023/03/28 03:41:31;;;;;;;4.95;3.53;;;1.50;99.90;;;;;;6001427;23;20593;-67
2023/03/28 03:43:59;;;;;;;4.05;2.83;;;1.50;99.90;;;;;;5993661;23;20236;-67
2023/03/28 03:46:26;;;;;;;6.15;3.20;;;1.50;99.90;;;;;;6002810;23;20203;-67
2023/03/28 03:48:54;;;;;;;7.57;3.83;;;1.50;99.90;;;;;;6000632;23;20330;-67
2023/03/28 03:51:21;;;;;;;4.05;3.00;;;1.60;99.90;;;;;;6002177;23;20188;-67
2023/03/28 03:53:49;;;;;;;4.97;3.45;;;1.60;99.90;;;;;;6003076;23;20913;-67
2023/03/28 03:56:16;;;;;;;3.67;3.30;;;1.60;99.90;;;;;;6002438;23;20275;-67
2023/03/28 03:58:43;;;;;;;3.20;2.90;;;1.60;99.90;;;;;;5995696;23;20279;-67
2023/03/28 04:01:12;;;;;;;4.30;3.00;;;1.60;99.90;;;;;;5996216;23;20215;-67
2023/03/28 04:03:40;;;;;;;4.78;3.00;;;1.60;99.90;;;;;;5999782;23;20194;-67
2023/03/28 04:06:07;;;;;;;5.25;3.13;;;1.50;99.90;;;;;;6003358;23;20267;-67
2023/03/28 04:08:35;;;;;;;3.33;3.03;;;1.50;99.90;;;;;;6005096;23;20599;-67
2023/03/28 04:11:02;;;;;;;5.07;3.60;;;1.50;99.90;;;;;;5989861;23;20202;-67
2023/03/28 04:13:30;;;;;;;3.60;2.75;;;1.50;99.90;;;;;;5997064;23;20216;-67
2023/03/28 04:15:57;;;;;;;4.30;3.22;;;1.50;99.90;;;;;;5999206;23;20703;-67
2023/03/28 04:18:28;;;;;;;4.15;2.88;;;1.50;99.90;;;;;;5998103;23;20282;-67
2023/03/28 04:21:00;;;;;;;3.25;2.75;;;1.50;99.90;;;;;;5998565;23;20188;-67
2023/03/28 04:23:28;;;;;;;3.70;2.90;;;1.50;99.90;;;;;;6001152;23;20183;-67
2023/03/28 04:25:57;;;;;;;3.28;2.97;;;1.50;99.90;;;;;;5987493;23;20191;-67
2023/03/28 04:28:26;;;;;;;4.10;3.30;;;1.60;99.90;;;;;;5992430;23;20213;-67
2023/03/28 04:30:56;;;;;;;5.25;2.80;;;1.40;99.90;;;;;;5988746;23;20196;-67
2023/03/28 04:33:26;;;;;;;4.65;2.95;;;1.50;99.90;;;;;;5996328;23;20707;-67
2023/03/28 04:35:56;;;;;;;5.25;3.08;;;1.40;99.90;;;;;;5990879;23;20231;-67
2023/03/28 04:38:25;;;;;;;4.43;3.20;;;1.50;99.90;;;;;;5974136;23;20208;-68
2023/03/28 04:40:56;;;;;;;3.65;2.95;;;1.40;99.90;;;;;;5979985;23;20190;-68
2023/03/28 04:43:25;;;;;;;3.92;3.00;;;1.40;99.90;;;;;;5991276;23;20184;-67
2023/03/28 04:45:52;;;;;;;3.13;2.85;;;1.30;99.90;;;;;;5992053;23;20196;-67
2023/03/28 04:48:19;;;;;;;3.30;3.00;;;1.40;99.90;;;;;;5996341;23;20763;-67
2023/03/28 04:50:47;;;;;;;3.75;3.35;;;1.40;99.90;;;;;;5998734;23;20255;-66
2023/03/28 04:53:15;;;;;;;3.60;3.28;;;1.40;99.90;;;;;;6004453;23;20207;-68
2023/03/28 04:55:47;;;;;;;3.17;2.70;;;1.30;99.90;;;;;;6000244;23;20534;-67
2023/03/28 04:58:15;;;;;;;4.13;3.78;;;1.30;99.90;;;;;;5996289;23;20329;-68
2023/03/28 05:00:43;;;;;;;5.00;3.15;;;1.30;99.90;;;;;;5996013;23;20656;-67
2023/03/28 05:03:17;;;;;;;2.83;2.22;;;1.30;99.90;;;;;;5999431;23;20192;-90
2023/03/28 05:05:45;;;;;;;6.32;3.05;;;1.30;99.90;;;;;;5987016;23;20216;-67
2023/03/28 05:08:15;;;;;;;3.30;2.90;;;1.30;99.90;;;;;;5986977;23;20896;-67
2023/03/28 05:10:42;;;;;;;5.57;3.08;;;1.30;99.90;;;;;;5990952;23;20270;-68
2023/03/28 05:13:10;;;;;;;4.80;2.60;;;1.30;99.90;;;;;;5986605;23;20191;-68
2023/03/28 05:15:37;;;;;;;4.93;3.03;;;1.30;99.90;;;;;;5987097;23;20243;-68
2023/03/28 05:18:05;;;;;;;3.33;2.88;;;1.30;99.90;;;;;;5981709;23;20210;-68
2023/03/28 05:20:34;;;;;;;5.05;3.25;;;1.30;99.90;;;;;;5994209;23;20193;-67
2023/03/28 05:23:02;;;;;;;3.75;3.33;;;1.30;99.90;;;;;;5993008;23;20586;-68
2023/03/28 05:25:30;;;;;;;4.82;3.40;;;1.30;99.90;;;;;;5997275;23;20692;-68
2023/03/28 05:27:57;;;;;;;5.82;3.05;;;1.30;99.90;;;;;;5997545;23;20560;-67
2023/03/28 05:30:24;;;;;;;5.82;3.13;;;1.30;99.90;;;;;;5992334;23;20223;-68
2023/03/28 05:32:51;;;;;;;3.90;3.08;;;1.30;99.90;;;;;;6001465;23;20227;-68
2023/03/28 05:35:18;;;;;;;4.68;3.58;;;1.40;99.90;;;;;;5997474;23;20196;-67
2023/03/28 05:37:45;;;;;;;3.85;3.20;;;1.40;99.90;;;;;;5998482;23;20222;-68
2023/03/28 05:40:14;;;;;;;4.55;3.25;;;1.40;99.90;;;;;;5997224;23;20184;-68
2023/03/28 05:42:42;;;;;;;4.70;2.85;;;1.40;99.90;;;;;;5993080;23;20196;-68
2023/03/28 05:45:11;;;;;;;6.35;3.40;;;1.50;99.90;;;;;;5994401;23;20243;-67
2023/03/28 05:47:38;;;;;;;5.78;3.15;;;1.50;99.90;;;;;;5993261;23;20734;-68
2023/03/28 05:50:08;;;;;;;5.63;3.00;;;1.50;99.90;;;;;;5992263;23;20222;-68
2023/03/28 05:52:35;;;;;;;5.30;3.15;;;1.50;99.90;;;;;;5990586;23;20251;-68
2023/03/28 05:55:02;;;;;;;4.55;3.20;;;1.60;99.90;;;;;;5999123;23;20184;-68
2023/03/28 05:57:29;;;;;;;4.50;3.00;;;1.60;99.90;;;;;;5992959;23;20253;-68
2023/03/28 05:59:58;;;;;;;4.70;3.05;;;1.70;99.90;;;;;;6001903;23;20709;-68
2023/03/28 06:02:25;;;;;;;5.60;3.55;;;1.70;99.90;;;;;;5999544;23;20264;-68
2023/03/28 06:04:53;;;;;;;5.43;3.38;;;1.70;99.90;;;;;;5998575;23;20227;-68
2023/03/28 06:07:21;;;;;;;3.28;2.95;;;1.80;99.90;;;;;;6000442;23;20234;-68
2023/03/28 06:09:48;;;;;;;4.72;3.22;;;1.90;99.90;;;;;;5990070;23;20207;-68
2023/03/28 06:12:15;;;;;;;3.58;3.25;;;2.00;99.90;;;;;;5994360;23;20268;-68
2023/03/28 06:14:42;;;;;;;4.15;2.53;;;2.20;99.90;;;;;;5992959;23;20669;-66
2023/03/28 06:17:11;;;;;;;4.70;2.95;;;2.30;99.90;;;;;;5996076;23;20211;-68
2023/03/28 06:19:38;;;;;;;3.28;2.67;;;2.50;99.90;;;;;;5991090;23;20220;-68
2023/03/28 06:22:05;;;;;;;4.25;3.10;;;2.60;99.90;;;;;;5989225;23;20194;-68
2023/03/28 06:24:32;;;;;;;5.07;2.97;;;2.80;99.90;;;;;;5987088;23;20646;-68
2023/03/28 06:26:59;;;;;;;6.75;3.50;;;3.00;99.90;;;;;;5990880;23;20757;-68
2023/03/28 06:29:26;;;;;;;5.60;2.75;;;3.20;99.90;;;;;;5991683;23;20214;-68
2023/03/28 06:31:53;;;;;;;5.07;2.95;;;3.50;99.90;;;;;;5991383;23;20190;-68
2023/03/28 06:34:22;;;;;;;5.13;2.85;;;3.80;99.90;;;;;;5996815;23;20194;-68
2023/03/28 06:36:49;;;;;;;3.30;2.72;;;4.20;99.90;;;;;;5994717;23;20253;-67
2023/03/28 06:39:16;;;;;;;5.00;2.70;;;4.60;99.90;;;;;;5997987;23;20188;-67
2023/03/28 06:41:43;;;;;;;3.67;2.20;;;4.90;99.90;;;;;;5993495;23;20704;-67
2023/03/28 06:44:10;;;;;;;5.97;2.60;;;5.30;99.90;;;;;;5991381;23;20199;-68
2023/03/28 06:46:37;;;;;;;7.80;2.92;;;5.70;99.90;;;;;;5986062;23;20285;-67
2023/03/28 06:49:05;;;;;;;3.95;2.60;;;5.90;99.90;;;;;;6000541;23;20240;-68
2023/03/28 06:51:34;;;;;;;3.72;2.60;;;6.00;99.90;;;;;;5987278;23;20195;-67
2023/03/28 06:54:01;;;;;;;3.38;2.65;;;6.20;99.90;;;;;;5985950;23;20194;-68
2023/03/28 06:56:28;;;;;;;4.13;2.70;;;6.50;99.90;;;;;;5996462;23;20208;-68
2023/03/28 06:58:55;;;;;;;4.22;2.92;;;6.70;99.90;;;;;;5993757;23;20198;-68
2023/03/28 07:01:22;;;;;;;3.75;2.60;;;6.80;99.90;;;;;;5996232;23;20280;-67
2023/03/28 07:03:49;;;;;;;3.97;2.50;;;6.90;99.90;;;;;;5997117;23;20181;-67
2023/03/28 07:06:16;;;;;;;5.55;2.78;;;7.10;99.90;;;;;;5999148;23;20203;-67
2023/03/28 07:08:44;;;;;;;4.85;2.55;;;7.00;99.90;;;;;;5998697;23;20193;-67
2023/03/28 07:11:12;;;;;;;4.30;2.65;;;7.00;99.90;;;;;;5997322;23;20263;-67
2023/03/28 07:13:39;;;;;;;5.05;2.55;;;7.00;99.90;;;;;;6000725;23;20654;-67
2023/03/28 07:16:08;;;;;;;5.22;2.60;;;7.10;99.90;;;;;;5994611;23;20211;-67
2023/03/28 07:18:35;;;;;;;3.13;2.67;;;7.10;99.90;;;;;;5991668;23;20227;-67
2023/03/28 07:21:06;;;;;;;5.75;3.45;;;7.10;99.90;;;;;;5999949;23;20213;-68
2023/03/28 07:23:33;;;;;;;6.15;3.03;;;7.20;99.90;;;;;;6003248;23;20227;-67
2023/03/28 07:26:01;;;;;;;6.55;2.90;;;7.40;99.90;;;;;;5994678;23;20232;-67
2023/03/28 07:28:29;;;;;;;4.88;2.90;;;7.40;99.90;;;;;;5998853;23;20288;-68
2023/03/28 07:30:56;;;;;;;5.78;3.00;;;7.40;99.90;;;;;;5997546;23;20245;-67
2023/03/28 07:33:23;;;;;;;3.45;2.47;;;7.20;99.90;;;;;;6002394;23;20182;-67
2023/03/28 07:35:51;;;;;;;4.80;2.45;;;7.10;99.90;;;;;;5997257;23;20659;-67
2023/03/28 07:38:18;;;;;;;6.03;2.65;;;7.10;99.90;;;;;;6000995;23;20674;-68
2023/03/28 07:40:45;;;;;;;4.32;2.20;;;7.20;99.90;;;;;;5995601;23;20640;-68
2023/03/28 07:43:14;;;;;;;3.22;2.05;;;7.40;99.90;;;;;;5997662;23;20213;-67
2023/03/28 07:45:41;;;;;;;4.28;2.65;;;7.70;99.90;;;;;;6000212;23;20830;-68
2023/03/28 07:48:08;;;;;;;8.68;4.90;;;7.90;99.90;;;;;;5987675;23;20604;-68
2023/03/28 07:50:35;;;;;;;4.80;2.65;;;8.20;99.90;;;;;;5985164;23;20276;-68
2023/03/28 07:53:02;;;;;;;5.88;2.45;;;8.60;99.90;;;;;;5996594;23;20253;-68
2023/03/28 07:55:30;;;;;;;4.43;2.55;;;8.90;99.90;;;;;;6000340;23;20182;-68
2023/03/28 07:57:57;;;;;;;3.63;2.40;;;9.20;99.90;;;;;;5991522;23;20598;-68
2023/03/28 08:00:26;;;;;;;4.93;2.63;;;9.40;99.90;;;;;;5998713;23;20194;-68
2023/03/28 08:02:53;;;;;;;3.90;2.50;;;9.50;99.90;;;;;;5998283;23;20274;-68
2023/03/28 08:05:20;;;;;;;4.65;2.60;;;9.40;99.90;;;;;;5990681;23;20186;-69
2023/03/28 08:07:47;;;;;;;4.05;2.30;;;9.40;99.90;;;;;;5991976;23;20697;-68
2023/03/28 08:10:14;;;;;;;5.15;2.95;;;9.50;99.90;;;;;;5985718;23;20264;-68
2023/03/28 08:12:41;;;;;;;3.50;2.58;;;9.80;99.90;;;;;;5994802;23;20524;-68
2023/03/28 08:15:09;;;;;;;4.53;2.40;;;10.10;99.90;;;;;;5998577;23;20218;-68
2023/03/28 08:17:37;;;;;;;3.93;2.53;;;10.40;99.90;;;;;;5988584;23;20213;-68
2023/03/28 08:20:09;;;;;;;4.67;2.80;;;10.50;99.90;;;;;;5989992;23;20442;-68
2023/03/28 08:22:36;;;;;;;3.87;2.93;;;10.70;99.90;;;;;;5998244;23;20439;-68
2023/03/28 08:25:04;;;;;;;3.03;2.17;;;10.90;99.90;;;;;;5999596;23;20738;-68
2023/03/28 08:27:32;;;;;;;4.23;2.70;;;11.20;99.90;;;;;;5999289;23;20531;-68
2023/03/28 08:29:59;;;;;;;2.97;2.00;;;10.80;99.50;;;;;;5988648;23;20461;-68
2023/03/28 08:32:26;;;;;;;3.80;2.42;;;10.40;99.90;;;;;;6000674;23;20249;-68
2023/03/28 08:34:56;;;;;;;6.32;2.67;;;10.10;99.60;;;;;;5992080;23;20213;-68
2023/03/28 08:37:23;;;;;;;2.80;1.90;;;9.90;99.90;;;;;;5996276;23;20210;-68
2023/03/28 08:39:51;;;;;;;6.80;3.40;;;9.70;99.90;;;;;;5997276;23;20669;-68
2023/03/28 08:42:56;;;;;;;3.05;1.90;;;9.70;99.90;;;;;;6000980;23;20289;-68
2023/03/28 08:45:47;;;;;;;2.38;1.90;;;9.60;99.60;;;;;;5895401;23;20745;-68
2023/03/28 08:48:21;;;;;;;5.10;2.50;;;9.20;99.90;;;;;;5997371;23;20194;-68
2023/03/28 08:50:53;;;;;;;4.10;2.50;;;9.30;99.90;;;;;;5987855;23;20205;-68
2023/03/28 08:53:29;;;;;;;3.63;1.95;;;9.70;99.90;;;;;;5995412;23;20183;-68
2023/03/28 08:55:57;;;;;;;4.28;2.33;;;10.00;99.40;;;;;;6001250;23;20603;-68
2023/03/28 08:58:30;;;;;;;4.70;2.50;;;10.30;99.60;;;;;;5994481;23;20273;-68
2023/03/28 09:00:57;;;;;;;4.60;2.40;;;10.60;98.10;;;;;;5987007;23;20461;-68
2023/03/28 09:03:24;;;;;;;4.10;2.20;;;10.50;98.50;;;;;;5994629;23;20196;-68
2023/03/28 09:06:02;;;;;;;4.63;2.20;;;10.80;98.10;;;;;;5991249;23;20460;-68
2023/03/28 09:08:55;;;;;;;4.30;2.20;;;10.70;97.70;;;;;;6000295;23;20451;-68
2023/03/28 09:11:37;;;;;;;4.13;2.40;;;10.90;97.50;;;;;;5996678;23;20467;-69
2023/03/28 09:14:23;;;;;;;5.93;1.97;;;11.40;98.00;;;;;;5989648;23;20465;-69
2023/03/28 09:17:06;;;;;;;5.60;1.90;;;12.20;96.70;;;;;;5999866;23;20523;-69
2023/03/28 09:19:44;;;;;;;2.70;1.90;;;12.80;96.10;;;;;;6001760;23;20448;-69
2023/03/28 09:22:21;;;;;;;6.30;2.10;;;13.40;94.80;;;;;;5990538;23;20530;-68
2023/03/28 09:24:59;;;;;;;2.70;1.93;;;13.60;92.80;;;;;;5991546;23;20455;-69
2023/03/28 09:27:32;;;;;;;2.40;1.60;;;13.10;92.20;;;;;;5999251;23;21010;-69
2023/03/28 09:30:17;;;;;;;3.53;1.80;;;12.90;91.60;;;;;;6003390;23;20532;-69
2023/03/28 09:32:44;;;;;;;3.80;1.80;;;12.90;91.70;;;;;;5990596;23;20493;-69
2023/03/28 09:35:16;;;;;;;2.60;1.90;;;12.80;91.20;;;;;;5989445;23;20484;-69
2023/03/28 09:37:48;;;;;;;4.97;1.93;;;12.40;89.40;;;;;;5988648;23;20509;-71
2023/03/28 09:40:22;;;;;;;3.43;1.77;;;12.00;89.30;;;;;;5985067;23;21224;-69
2023/03/28 09:43:01;;;;;;;5.30;2.30;;;11.30;90.30;;;;;;5991889;23;20445;-69
2023/03/28 09:45:42;;;;;;;2.80;1.70;;;11.20;90.00;;;;;;5990458;23;20690;-69
2023/03/28 09:48:15;;;;;;;4.45;1.80;;;10.80;90.00;;;;;;5990496;23;20293;-69
2023/03/28 09:50:43;;;;;;;1.85;1.55;;;10.30;90.90;;;;;;6001726;23;20657;-69
2023/03/28 09:53:22;;;;;;;11.10;2.20;;;10.40;91.00;;;;;;5999166;23;20597;-69
2023/03/28 09:55:50;;;;;;;2.83;1.90;;;10.80;91.40;;;;;;5996887;23;20591;-69
2023/03/28 09:58:17;;;;;;;1.70;1.33;;;11.50;90.80;;;;;;5995041;23;20205;-69
2023/03/28 10:00:48;;;;;;;4.72;2.13;;;11.70;84.70;;;;;;5995981;23;20445;-69
2023/03/28 10:03:30;;;;;;;4.18;2.03;;;11.30;86.90;;;;;;5989130;23;20194;-69
2023/03/28 10:05:58;;;;;;;1.50;1.40;;;10.70;86.60;;;;;;5985211;23;20206;-69
2023/03/28 10:08:31;;;;;;;3.08;1.40;;;10.00;87.20;;;;;;5996931;23;20186;-68
2023/03/28 10:11:05;;;;;;;2.70;1.60;;;9.80;89.00;;;;;;5999827;23;20256;-69
2023/03/28 10:13:41;;;;;;;4.75;1.95;;;9.80;89.90;;;;;;5994791;23;20185;-69
2023/03/28 10:16:10;;;;;;;3.88;1.52;;;9.90;90.10;;;;;;5988981;23;20236;-69
2023/03/28 10:18:39;;;;;;;3.05;1.73;;;10.30;90.30;;;;;;5993018;23;20197;-69
2023/03/28 10:21:12;;;;;;;2.60;1.75;;;10.50;87.60;;;;;;5993999;23;20544;-69
2023/03/28 10:23:44;;;;;;;2.55;1.95;;;10.80;86.30;;;;;;5992107;23;20216;-70
2023/03/28 10:26:13;;;;;;;3.35;1.60;;;11.10;86.00;;;;;;5997243;23;20210;-69
2023/03/28 10:28:43;;;;;;;3.28;2.10;;;11.50;84.00;;;;;;6000484;23;20212;-69
2023/03/28 10:31:21;;;;;;;1.97;1.50;;;12.00;84.30;;;;;;6001622;23;20218;-69
2023/03/28 10:33:52;;;;;;;3.30;1.77;;;11.90;83.60;;;;;;5994296;23;20444;-70
2023/03/28 10:36:28;;;;;;;5.23;1.70;;;12.50;84.10;;;;;;5994980;23;20467;-69
2023/03/28 10:38:57;;;;;;;3.20;1.60;;;13.10;79.70;;;;;;5987739;23;20647;-70
2023/03/28 10:41:25;;;;;;;2.00;1.50;;;13.70;77.90;;;;;;6000035;23;20421;-68
2023/03/28 10:43:52;;;;;;;1.90;1.30;;;14.20;79.10;;;;;;5998293;23;20872;-68
2023/03/28 10:46:22;;;;;;;3.03;1.97;;;14.90;78.20;;;;;;5998521;23;20473;-67
2023/03/28 10:48:52;;;;;;;2.90;1.93;;;15.00;73.00;;;;;;5999447;23;20612;-67
2023/03/28 10:51:23;;;;;;;2.47;1.90;;;14.50;74.60;;;;;;5996078;23;20471;-68
2023/03/28 10:54:08;;;;;;;2.40;1.50;;;14.00;75.60;;;;;;5993228;23;20619;-68
2023/03/28 10:56:40;;;;;;;3.40;2.00;;;14.40;77.40;;;;;;5996887;23;20467;-69
2023/03/28 10:59:41;;;;;;;4.20;2.30;;;15.20;76.20;;;;;;5996382;23;20532;-69
2023/03/28 11:02:33;;;;;;;2.37;1.73;;;15.80;71.50;;;;;;5986143;23;20896;-69
2023/03/28 11:05:05;;;;;;;2.23;1.47;;;16.10;71.00;;;;;;5988218;23;20441;-69
2023/03/28 11:07:40;;;;;;;2.40;1.70;;;16.40;66.70;;;;;;5994551;23;20433;-67
2023/03/28 11:10:18;;;;;;;3.10;2.00;;;16.60;65.60;;;;;;5989866;23;20442;-68
2023/03/28 11:13:01;;;;;;;3.80;2.07;;;16.00;65.80;;;;;;5989577;23;20474;-68
2023/03/28 11:15:33;;;;;;;4.07;1.80;;;15.90;66.20;;;;;;5982337;23;20457;-67
2023/03/28 11:18:16;;;;;;;2.90;1.80;;;15.80;69.20;;;;;;5989352;23;20782;-81
2023/03/28 11:20:50;;;;;;;4.03;2.20;;;16.20;67.50;;;;;;5979734;23;20473;-68
2023/03/28 11:23:37;;;;;;;3.83;2.20;;;15.30;66.40;;;;;;5979861;23;20433;-68
2023/03/28 11:26:11;;;;;;;2.47;1.87;;;14.60;65.70;;;;;;5974216;23;20464;-68
2023/03/28 11:29:00;;;;;;;2.17;1.97;;;14.10;67.80;;;;;;5967207;23;20507;-69
2023/03/28 11:31:32;;;;;;;2.70;1.70;;;14.40;69.50;;;;;;5978989;23;21618;-69
2023/03/28 11:34:04;;;;;;;2.33;1.70;;;15.10;67.80;;;;;;5975939;23;20480;-69
2023/03/28 11:36:35;;;;;;;2.60;2.13;;;15.70;66.10;;;;;;5977705;23;20893;-69
2023/03/28 11:39:11;;;;;;;4.63;2.20;;;16.20;64.80;;;;;;5970170;23;20461;-68
2023/03/28 11:41:41;;;;;;;4.43;1.87;;;16.00;63.30;;;;;;5969256;23;20437;-68
2023/03/28 11:44:16;;;;;;;3.40;1.90;;;15.50;63.50;;;;;;5972641;23;21366;-69
2023/03/28 11:46:48;;;;;;;3.90;2.17;;;15.70;64.60;;;;;;5973798;23;20456;-68
2023/03/28 11:49:21;;;;;;;2.90;2.20;;;15.40;65.30;;;;;;5979372;23;20888;-68
2023/03/28 11:51:55;;;;;;;2.80;1.80;;;15.00;65.10;;;;;;5972768;23;21582;-69
2023/03/28 11:54:28;;;;;;;2.10;1.80;;;14.50;66.10;;;;;;5972248;23;21161;-69
2023/03/28 11:57:00;;;;;;;2.27;1.83;;;14.40;66.40;;;;;;5963888;23;20544;-69
2023/03/28 11:59:36;;;;;;;3.40;1.90;;;14.90;66.90;;;;;;5985063;23;20433;-69
2023/03/28 12:02:12;;;;;;;5.53;2.30;;;14.70;64.90;;;;;;5984059;23;20438;-68
2023/03/28 12:04:45;;;;;;;2.23;1.93;;;14.40;64.70;;;;;;5980750;23;20787;-68
2023/03/28 12:07:19;;;;;;;3.20;2.30;;;14.20;65.00;;;;;;5979865;23;20444;-68
2023/03/28 12:10:05;;;;;;;5.80;2.30;;;14.00;63.80;;;;;;5985996;23;20883;-68
2023/03/28 12:12:38;;;;;;;3.30;2.23;;;13.50;65.20;;;;;;5976161;23;20511;-68
2023/03/28 12:15:11;;;;;;;4.20;2.37;;;13.70;66.30;;;;;;5978681;23;20475;-68
2023/03/28 12:17:43;;;;;;;1.80;1.70;;;13.70;65.90;;;;;;5968921;23;20441;-69
2023/03/28 12:20:15;;;;;;;3.30;1.90;;;14.20;66.50;;;;;;5969116;23;22341;-69
2023/03/28 12:22:49;;;;;;;3.37;2.10;;;15.00;65.10;;;;;;5966329;23;20453;-68
2023/03/28 12:25:24;;;;;;;2.67;2.20;;;15.40;63.40;;;;;;5972603;23;20468;-68
2023/03/28 12:28:02;;;;;;;2.30;2.10;;;15.60;64.20;;;;;;5983395;23;20437;-68
2023/03/28 12:30:36;;;;;;;2.70;1.90;;;15.90;62.80;;;;;;5980070;23;20489;-68
2023/03/28 12:33:14;;;;;;;3.37;2.13;;;16.20;63.30;;;;;;5967805;23;20633;-68
2023/03/28 12:35:49;;;;;;;2.70;2.00;;;16.60;62.10;;;;;;5973503;23;21065;-68
2023/03/28 12:38:30;;;;;;;2.17;1.83;;;16.50;60.00;;;;;;5975418;23;20947;-68
2023/03/28 12:41:01;;;;;;;3.47;1.87;;;16.60;60.90;;;;;;5974595;23;20519;-67
2023/03/28 12:43:36;;;;;;;2.70;2.07;;;16.20;61.00;;;;;;5970734;23;23678;-67
2023/03/28 12:46:06;;;;;;;2.13;1.80;;;15.20;61.60;;;;;;5968329;23;20471;-68
2023/03/28 12:48:39;;;;;;;3.20;2.00;;;14.30;63.30;;;;;;5973736;23;20458;-67
2023/03/28 12:51:14;;;;;;;3.07;2.30;;;13.70;63.30;;;;;;5984513;23;20500;-69
2023/03/28 12:53:46;;;;;;;2.80;2.40;;;13.30;64.10;;;;;;5984877;23;20438;-69
2023/03/28 12:56:15;;;;;;;2.67;2.10;;;13.50;64.40;;;;;;5979318;23;20459;-69
2023/03/28 12:58:47;;;;;;;2.80;2.23;;;13.70;64.60;;;;;;5978553;23;20448;-69
2023/03/28 13:01:29;;;;;;;2.53;2.10;;;13.70;63.60;;;;;;5979292;23;20446;-69
2023/03/28 13:04:06;;;;;;;2.90;2.20;;;13.20;63.90;;;;;;5988272;23;20436;-68
2023/03/28 13:06:42;;;;;;;2.70;1.97;;;12.90;64.30;;;;;;5980856;23;21047;-69
2023/03/28 13:09:22;;;;;;;2.40;1.80;;;13.10;65.70;;;;;;5983460;23;20570;-68
2023/03/28 13:11:55;;;;;;;3.80;2.20;;;13.70;66.40;;;;;;5991000;23;20470;-68
2023/03/28 13:14:35;;;;;;;3.70;2.40;;;14.40;65.60;;;;;;5992027;23;20444;-69
2023/03/28 13:17:15;;;;;;;4.27;2.07;;;15.20;62.90;;;;;;5988962;23;20445;-69